createdAt,value
2023-04-20T00:02:15.980Z,101708.13
2023-04-20T00:04:45.187Z,101717.31
2023-04-20T00:07:17.586Z,101705.38
2023-04-20T00:09:49.366Z,101709.31
2023-04-20T00:12:21.003Z,101713.50
2023-04-20T00:14:50.214Z,101719.28
2023-04-20T00:17:19.518Z,101726.09
2023-04-20T00:19:49.189Z,101734.66
2023-04-20T00:22:18.295Z,101738.97
2023-04-20T00:24:47.317Z,101731.22
2023-04-20T00:27:16.359Z,101730.28
2023-04-20T00:29:45.441Z,101731.34
2023-04-20T00:32:16.361Z,101732.63
2023-04-20T00:34:45.586Z,101729.69
2023-04-20T00:37:17.114Z,101738.34
2023-04-20T00:39:46.295Z,101743.13
2023-04-20T00:42:15.199Z,101748.69
2023-04-20T00:44:44.906Z,101744.63
2023-04-20T00:47:14.093Z,101750.75
2023-04-20T00:49:43.560Z,101754.28
2023-04-20T00:52:14.854Z,101754.78
2023-04-20T00:54:47.587Z,101755.41
2023-04-20T00:57:24.704Z,101765.81
2023-04-20T00:59:53.882Z,101769.94
2023-04-20T01:02:24.628Z,101767.47
2023-04-20T01:04:54.090Z,101779.34
2023-04-20T01:07:23.794Z,101785.00
2023-04-20T01:09:53.133Z,101780.53
2023-04-20T01:12:22.282Z,101788.28
2023-04-20T01:14:51.380Z,101794.94
2023-04-20T01:17:21.212Z,101795.31
2023-04-20T01:19:51.525Z,101806.13
2023-04-20T01:22:30.963Z,101810.44
2023-04-20T01:25:00.412Z,101814.38
2023-04-20T01:27:31.918Z,101817.00
2023-04-20T01:30:03.790Z,101822.53
2023-04-20T01:32:37.082Z,101820.09
2023-04-20T01:35:07.438Z,101827.06
2023-04-20T01:37:36.882Z,101828.69
2023-04-20T01:40:07.236Z,101825.66
2023-04-20T01:42:39.298Z,101824.75
2023-04-20T01:45:09.559Z,101821.81
2023-04-20T01:47:41.922Z,101827.59
2023-04-20T01:50:11.552Z,101830.31
2023-04-20T01:52:46.215Z,101831.34
2023-04-20T01:55:20.017Z,101830.31
2023-04-20T01:57:49.854Z,101831.19
2023-04-20T02:00:19.782Z,101832.09
2023-04-20T02:02:55.164Z,101834.66
2023-04-20T02:05:24.908Z,101837.22
2023-04-20T02:07:54.234Z,101833.53
2023-04-20T02:10:23.292Z,101837.97
2023-04-20T02:12:53.956Z,101831.78
2023-04-20T02:15:30.886Z,101842.84
2023-04-20T02:18:07.821Z,101837.59
2023-04-20T02:20:37.216Z,101837.72
2023-04-20T02:23:09.628Z,101842.06
2023-04-20T02:25:39.830Z,101849.13
2023-04-20T02:28:14.026Z,101848.31
2023-04-20T02:30:44.975Z,101852.94
2023-04-20T02:33:17.550Z,101852.03
2023-04-20T02:39:12.519Z,101861.66
2023-04-20T02:41:44.274Z,101868.13
2023-04-20T02:44:18.245Z,101873.44
2023-04-20T02:46:56.091Z,101881.13
2023-04-20T02:49:33.547Z,101888.69
2023-04-20T02:54:53.481Z,101894.03
2023-04-20T02:57:29.736Z,101901.41
2023-04-20T03:00:13.972Z,101904.19
2023-04-20T03:03:05.996Z,101911.03
2023-04-20T03:05:38.326Z,101914.50
2023-04-20T03:08:13.119Z,101919.31
2023-04-20T03:10:46.143Z,101924.69
2023-04-20T03:13:19.498Z,101930.56
2023-04-20T03:16:18.882Z,101937.88
2023-04-20T03:18:55.225Z,101937.09
2023-04-20T03:21:34.412Z,101940.13
2023-04-20T03:24:23.000Z,101939.16
2023-04-20T03:27:10.457Z,101947.00
2023-04-20T03:30:20.096Z,101952.94
2023-04-20T03:32:54.689Z,101957.84
2023-04-20T03:35:23.944Z,101961.00
2023-04-20T03:37:54.912Z,101967.47
2023-04-20T03:40:42.562Z,101963.84
2023-04-20T03:43:45.628Z,101984.41
2023-04-20T03:46:51.267Z,101979.38
2023-04-20T03:49:32.928Z,101987.25
2023-04-20T03:52:02.148Z,101983.34
2023-04-20T03:54:31.472Z,101985.91
2023-04-20T03:57:01.144Z,101989.41
2023-04-20T03:59:30.450Z,101988.56
2023-04-20T04:02:01.071Z,101993.34
2023-04-20T04:04:30.624Z,101998.03
2023-04-20T04:07:00.550Z,102004.09
2023-04-20T04:09:32.079Z,102009.44
2023-04-20T04:12:02.303Z,102020.28
2023-04-20T04:14:31.620Z,102012.03
2023-04-20T04:17:03.731Z,102012.03
2023-04-20T04:19:35.298Z,102023.53
2023-04-20T04:22:05.556Z,102022.72
2023-04-20T04:24:39.896Z,102020.94
2023-04-20T04:27:11.924Z,102028.06
2023-04-20T04:29:46.184Z,102030.84
2023-04-20T04:32:20.277Z,102033.25
2023-04-20T04:34:51.278Z,102038.94
2023-04-20T04:37:20.936Z,102052.22
2023-04-20T04:39:53.836Z,102039.88
2023-04-20T04:42:28.861Z,102047.00
2023-04-20T04:45:02.807Z,102049.97
2023-04-20T04:47:40.032Z,102052.56
2023-04-20T04:50:11.526Z,102047.81
2023-04-20T04:52:43.712Z,102048.19
2023-04-20T04:55:15.753Z,102045.25
2023-04-20T04:57:45.619Z,102052.09
2023-04-20T05:00:15.332Z,102052.91
2023-04-20T05:02:44.459Z,102054.19
2023-04-20T05:05:13.512Z,102061.31
2023-04-20T05:07:45.262Z,102058.53
2023-04-20T05:10:15.258Z,102061.59
2023-04-20T05:12:45.324Z,102061.78
2023-04-20T05:15:14.402Z,102068.25
2023-04-20T05:17:43.670Z,102067.81
2023-04-20T05:20:13.158Z,102065.69
2023-04-20T05:22:42.236Z,102064.56
2023-04-20T05:25:13.877Z,102073.47
2023-04-20T05:27:43.081Z,102068.78
2023-04-20T05:30:20.421Z,102078.84
2023-04-20T05:32:52.688Z,102074.75
2023-04-20T05:35:22.368Z,102079.47
2023-04-20T05:37:51.907Z,102073.63
2023-04-20T05:40:21.078Z,102085.25
2023-04-20T05:42:50.228Z,102087.06
2023-04-20T05:45:19.347Z,102093.66
2023-04-20T05:47:58.262Z,102089.13
2023-04-20T05:50:28.867Z,102097.25
2023-04-20T05:52:58.407Z,102093.00
2023-04-20T05:55:27.823Z,102098.03
2023-04-20T05:57:56.858Z,102097.19
2023-04-20T06:00:26.347Z,102103.22
2023-04-20T06:02:55.832Z,102107.09
2023-04-20T06:05:25.336Z,102115.03
2023-04-20T06:07:54.420Z,102111.66
2023-04-20T06:10:25.526Z,102110.03
2023-04-20T06:12:54.664Z,102107.91
2023-04-20T06:15:23.756Z,102115.22
2023-04-20T06:17:52.889Z,102110.84
2023-04-20T06:20:22.358Z,102108.59
2023-04-20T06:22:53.242Z,102111.66
2023-04-20T06:25:22.522Z,102120.91
2023-04-20T06:27:53.006Z,102124.94
2023-04-20T06:30:22.307Z,102117.81
2023-04-20T06:32:51.497Z,102128.69
2023-04-20T06:35:20.739Z,102138.69
2023-04-20T06:37:49.775Z,102142.63
2023-04-20T06:40:21.428Z,102143.91
2023-04-20T06:42:50.514Z,102148.75
2023-04-20T06:45:19.944Z,102146.34
2023-04-20T06:47:50.255Z,102159.44
2023-04-20T06:50:19.502Z,102163.00
2023-04-20T06:52:49.340Z,102169.16
2023-04-20T06:55:19.156Z,102161.53
2023-04-20T06:57:48.237Z,102161.31
2023-04-20T07:00:19.542Z,102167.34
2023-04-20T07:02:52.687Z,102167.94
2023-04-20T07:05:22.046Z,102169.00
2023-04-20T07:07:51.272Z,102172.75
2023-04-20T07:10:20.472Z,102170.28
2023-04-20T07:12:52.652Z,102175.78
2023-04-20T07:15:22.072Z,102167.91
2023-04-20T07:17:51.363Z,102179.13
2023-04-20T07:20:22.428Z,102186.25
2023-04-20T07:22:51.606Z,102191.00
2023-04-20T07:25:20.871Z,102189.34
2023-04-20T07:27:50.081Z,102188.34
2023-04-20T07:30:19.258Z,102198.59
2023-04-20T07:32:48.527Z,102207.09
2023-04-20T07:35:17.624Z,102206.28
2023-04-20T07:37:46.989Z,102213.78
2023-04-20T07:40:17.774Z,102208.72
2023-04-20T07:42:47.071Z,102200.13
2023-04-20T07:45:16.279Z,102199.25
2023-04-20T07:47:48.020Z,102203.34
2023-04-20T07:50:17.284Z,102207.25
2023-04-20T07:52:46.452Z,102206.72
2023-04-20T07:55:16.754Z,102212.06
2023-04-20T07:57:46.254Z,102205.63
2023-04-20T08:00:16.141Z,102216.31
2023-04-20T08:02:48.060Z,102215.22
2023-04-20T08:05:20.673Z,102218.41
2023-04-20T08:07:49.922Z,102224.13
2023-04-20T08:10:19.211Z,102227.31
2023-04-20T08:12:51.114Z,102229.00
2023-04-20T08:15:24.204Z,102221.06
2023-04-20T08:17:53.904Z,102225.59
2023-04-20T08:20:23.199Z,102229.78
2023-04-20T08:22:52.172Z,102233.34
2023-04-20T08:25:25.238Z,102233.97
2023-04-20T08:27:55.184Z,102235.91
2023-04-20T08:30:24.149Z,102237.19
2023-04-20T08:32:53.591Z,102231.16
2023-04-20T08:35:22.629Z,102235.16
2023-04-20T08:37:51.978Z,102239.19
2023-04-20T08:40:24.464Z,102239.84
2023-04-20T08:42:53.617Z,102238.81
2023-04-20T08:45:22.717Z,102245.44
2023-04-20T08:47:51.992Z,102241.34
2023-04-20T08:50:21.902Z,102231.94
2023-04-20T08:52:51.108Z,102247.47
2023-04-20T08:55:21.334Z,102232.34
2023-04-20T08:57:53.115Z,102244.97
2023-04-20T09:00:22.705Z,102246.91
2023-04-20T09:02:58.373Z,102244.19
2023-04-20T09:05:32.358Z,102247.16
2023-04-20T09:08:03.045Z,102248.97
2023-04-20T09:10:42.359Z,102253.00
2023-04-20T09:13:23.635Z,102253.06
2023-04-20T09:15:52.927Z,102248.56
2023-04-20T09:18:22.142Z,102241.44
2023-04-20T09:20:51.714Z,102245.31
2023-04-20T09:23:22.590Z,102253.72
2023-04-20T09:25:56.747Z,102246.59
2023-04-20T09:28:36.459Z,102251.56
2023-04-20T09:31:05.734Z,102243.53
2023-04-20T09:33:37.501Z,102248.44
2023-04-20T09:36:08.696Z,102245.38
2023-04-20T09:38:38.010Z,102244.25
2023-04-20T09:41:08.557Z,102251.69
2023-04-20T09:43:37.609Z,102239.81
2023-04-20T09:46:08.938Z,102245.41
2023-04-20T09:48:38.180Z,102247.16
2023-04-20T09:51:08.401Z,102242.78
2023-04-20T09:53:38.192Z,102241.75
2023-04-20T09:56:08.257Z,102246.25
2023-04-20T09:58:39.277Z,102252.38
2023-04-20T10:01:12.275Z,102250.75
2023-04-20T10:03:45.205Z,102246.66
2023-04-20T10:06:31.728Z,102252.97
2023-04-20T10:09:03.579Z,102243.41
2023-04-20T10:11:51.556Z,102244.63
2023-04-20T10:14:24.556Z,102245.88
2023-04-20T10:17:10.954Z,102246.69
2023-04-20T10:19:45.183Z,102250.56
2023-04-20T10:22:27.665Z,102254.84
2023-04-20T10:24:56.641Z,102256.03
2023-04-20T10:27:28.352Z,102248.22
2023-04-20T10:29:57.360Z,102248.81
2023-04-20T10:32:28.190Z,102250.75
2023-04-20T10:35:23.473Z,102248.31
2023-04-20T10:37:54.833Z,102256.06
2023-04-20T10:40:30.381Z,102250.25
2023-04-20T10:43:02.669Z,102257.25
2023-04-20T10:45:39.473Z,102260.13
2023-04-20T10:48:09.826Z,102262.75
2023-04-20T10:50:39.338Z,102256.66
2023-04-20T10:53:21.747Z,102251.19
2023-04-20T10:56:01.719Z,102255.00
2023-04-20T10:58:33.725Z,102263.56
2023-04-20T11:01:07.756Z,102262.75
2023-04-20T11:03:37.115Z,102270.47
2023-04-20T11:06:06.440Z,102261.75
2023-04-20T11:08:43.985Z,102270.34
2023-04-20T11:11:26.200Z,102269.44
2023-04-20T11:14:11.440Z,102265.75
2023-04-20T11:16:51.283Z,102266.88
2023-04-20T11:19:35.087Z,102271.75
2023-04-20T11:22:07.261Z,102267.53
2023-04-20T11:24:38.299Z,102274.66
2023-04-20T11:27:07.477Z,102275.00
2023-04-20T11:29:40.692Z,102267.47
2023-04-20T11:32:11.664Z,102274.84
2023-04-20T11:34:41.369Z,102276.97
2023-04-20T11:37:14.588Z,102276.84
2023-04-20T11:39:47.395Z,102271.94
2023-04-20T11:42:19.129Z,102276.84
2023-04-20T11:44:48.253Z,102270.69
2023-04-20T11:47:21.199Z,102259.34
2023-04-20T11:49:50.477Z,102263.06
2023-04-20T11:52:22.025Z,102261.28
2023-04-20T11:54:51.168Z,102263.31
2023-04-20T11:57:22.435Z,102264.75
2023-04-20T11:59:51.699Z,102250.28
2023-04-20T12:02:20.672Z,102260.69
2023-04-20T12:04:50.071Z,102260.88
2023-04-20T12:07:19.278Z,102262.50
2023-04-20T12:09:48.292Z,102266.19
2023-04-20T12:12:20.760Z,102263.38
2023-04-20T12:14:52.006Z,102255.53
2023-04-20T12:17:21.156Z,102260.63
2023-04-20T12:19:50.143Z,102258.72
2023-04-20T12:22:19.406Z,102250.22
2023-04-20T12:24:48.548Z,102260.16
2023-04-20T12:27:18.653Z,102253.84
2023-04-20T12:29:47.878Z,102247.50
2023-04-20T12:32:20.050Z,102247.78
2023-04-20T12:34:49.351Z,102246.34
2023-04-20T12:37:18.938Z,102234.78
2023-04-20T12:39:48.012Z,102223.94
2023-04-20T12:42:20.339Z,102236.81
2023-04-20T12:44:50.066Z,102231.69
2023-04-20T12:47:19.287Z,102238.06
2023-04-20T12:49:49.212Z,102238.94
2023-04-20T12:52:18.584Z,102236.94
2023-04-20T12:54:47.703Z,102236.06
2023-04-20T12:57:19.661Z,102227.84
2023-04-20T12:59:51.726Z,102230.28
2023-04-20T13:02:21.528Z,102231.63
2023-04-20T13:04:50.720Z,102228.72
2023-04-20T13:07:22.275Z,102224.53
2023-04-20T13:09:51.602Z,102216.81
2023-04-20T13:12:20.875Z,102224.41
2023-04-20T13:14:51.056Z,102227.84
2023-04-20T13:17:20.790Z,102222.50
2023-04-20T13:19:51.170Z,102206.28
2023-04-20T13:22:23.130Z,102206.00
2023-04-20T13:24:52.300Z,102211.41
2023-04-20T13:27:21.356Z,102200.75
2023-04-20T13:29:50.546Z,102195.09
2023-04-20T13:32:19.709Z,102188.09
2023-04-20T13:34:53.071Z,102194.59
2023-04-20T13:37:22.111Z,102197.69
2023-04-20T13:39:51.162Z,102195.50
2023-04-20T13:42:20.398Z,102188.78
2023-04-20T13:44:49.404Z,102191.84
2023-04-20T13:47:21.310Z,102197.56
2023-04-20T13:49:50.843Z,102188.59
2023-04-20T13:52:19.803Z,102196.94
2023-04-20T13:54:49.947Z,102195.47
2023-04-20T13:57:19.171Z,102192.81
2023-04-20T13:59:48.586Z,102181.84
2023-04-20T14:02:20.446Z,102184.19
2023-04-20T14:04:49.692Z,102180.69
2023-04-20T14:07:18.856Z,102184.53
2023-04-20T14:09:48.021Z,102187.59
2023-04-20T14:12:20.538Z,102182.94
2023-04-20T14:14:49.700Z,102176.56
2023-04-20T14:17:18.921Z,102187.84
2023-04-20T14:19:50.418Z,102183.38
2023-04-20T14:22:19.641Z,102190.97
2023-04-20T14:24:49.441Z,102200.94
2023-04-20T14:27:21.610Z,102199.72
2023-04-20T14:29:52.050Z,102192.56
2023-04-20T14:32:21.220Z,102195.22
2023-04-20T14:34:50.217Z,102199.81
2023-04-20T14:37:19.765Z,102195.25
2023-04-20T14:39:48.790Z,102192.38
2023-04-20T14:42:18.144Z,102198.09
2023-04-20T14:44:49.630Z,102201.34
2023-04-20T14:47:19.337Z,102195.97
2023-04-20T14:49:48.487Z,102197.97
2023-04-20T14:52:18.390Z,102200.31
2023-04-20T14:54:47.460Z,102194.72
2023-04-20T14:57:19.222Z,102186.06
2023-04-20T14:59:48.352Z,102189.22
2023-04-20T15:02:19.129Z,102188.72
2023-04-20T15:04:51.859Z,102190.91
2023-04-20T15:07:21.395Z,102192.91
2023-04-20T15:09:50.330Z,102190.88
2023-04-20T15:12:21.884Z,102192.72
2023-04-20T15:14:50.946Z,102183.81
2023-04-20T15:17:20.046Z,102190.44
2023-04-20T15:19:49.283Z,102185.06
2023-04-20T15:22:21.091Z,102199.22
2023-04-20T15:24:50.204Z,102193.31
2023-04-20T15:27:19.703Z,102191.69
2023-04-20T15:29:51.309Z,102205.19
2023-04-20T15:32:20.417Z,102196.63
2023-04-20T15:34:49.485Z,102189.50
2023-04-20T15:37:19.050Z,102192.34
2023-04-20T15:39:50.606Z,102188.56
2023-04-20T15:42:20.681Z,102186.97
2023-04-20T15:44:49.804Z,102186.56
2023-04-20T15:47:22.024Z,102183.66
2023-04-20T15:49:51.340Z,102182.16
2023-04-20T15:52:20.391Z,102183.19
2023-04-20T15:54:49.414Z,102169.38
2023-04-20T15:57:19.384Z,102173.44
2023-04-20T15:59:48.393Z,102170.09
2023-04-20T16:02:17.705Z,102164.28
2023-04-20T16:04:47.041Z,102164.00
2023-04-20T16:07:19.476Z,102151.50
2023-04-20T16:09:48.497Z,102145.13
2023-04-20T16:12:17.957Z,102145.63
2023-04-20T16:14:47.185Z,102145.50
2023-04-20T16:17:16.527Z,102150.72
2023-04-20T16:19:48.706Z,102141.97
2023-04-20T16:22:17.831Z,102131.25
2023-04-20T16:24:46.848Z,102123.19
2023-04-20T16:27:15.929Z,102119.81
2023-04-20T16:29:47.532Z,102103.78
2023-04-20T16:32:19.293Z,102115.44
2023-04-20T16:34:48.352Z,102116.78
2023-04-20T16:37:19.883Z,102112.22
2023-04-20T16:39:48.844Z,102113.69
2023-04-20T16:42:20.748Z,102108.78
2023-04-20T16:44:49.716Z,102100.72
2023-04-20T16:47:22.260Z,102096.97
2023-04-20T16:49:51.356Z,102100.56
2023-04-20T16:52:26.403Z,102092.06
2023-04-20T16:54:55.452Z,102086.72
2023-04-20T16:57:24.449Z,102091.13
2023-04-20T16:59:53.648Z,102096.34
2023-04-20T17:02:22.881Z,102086.75
2023-04-20T17:04:52.190Z,102091.78
2023-04-20T17:07:21.394Z,102093.72
2023-04-20T17:09:50.640Z,102090.13
2023-04-20T17:12:22.865Z,102075.19
2023-04-20T17:14:55.748Z,102083.47
2023-04-20T17:17:25.059Z,102081.19
2023-04-20T17:19:54.168Z,102090.25
2023-04-20T17:22:23.461Z,102085.19
2023-04-20T17:24:52.919Z,102082.09
2023-04-20T17:27:25.170Z,102089.00
2023-04-20T17:29:56.545Z,102081.97
2023-04-20T17:32:25.849Z,102071.66
2023-04-20T17:34:54.951Z,102070.59
2023-04-20T17:37:24.174Z,102054.66
2023-04-20T17:39:53.222Z,102052.94
2023-04-20T17:42:22.310Z,102047.84
2023-04-20T17:44:52.378Z,102049.72
2023-04-20T17:47:22.020Z,102052.31
2023-04-20T17:49:51.144Z,102060.69
2023-04-20T17:52:23.157Z,102060.44
2023-04-20T17:54:53.354Z,102069.97
2023-04-20T17:57:22.555Z,102075.31
2023-04-20T17:59:51.706Z,102078.41
2023-04-20T18:02:21.628Z,102076.66
2023-04-20T18:04:51.122Z,102075.97
2023-04-20T18:07:20.519Z,102080.03
2023-04-20T18:09:49.408Z,102070.31
2023-04-20T18:12:20.956Z,102061.13
2023-04-20T18:14:50.080Z,102046.50
2023-04-20T18:17:21.807Z,102053.84
2023-04-20T18:19:50.935Z,102050.63
2023-04-20T18:22:20.071Z,102046.16
2023-04-20T18:24:49.104Z,102027.69
2023-04-20T18:27:18.100Z,102028.09
2023-04-20T18:29:50.522Z,102031.91
2023-04-20T18:32:21.750Z,102035.56
2023-04-20T18:34:50.975Z,102029.22
2023-04-20T18:37:19.946Z,102012.06
2023-04-20T18:39:48.954Z,102006.09
2023-04-20T18:42:18.235Z,102008.75
2023-04-20T18:44:53.847Z,102020.63
2023-04-20T18:47:25.412Z,102022.28
2023-04-20T18:49:54.670Z,102013.47
2023-04-20T18:52:24.375Z,102021.34
2023-04-20T18:54:56.222Z,102012.91
2023-04-20T18:57:27.496Z,102005.06
2023-04-20T18:59:57.353Z,102007.03
2023-04-20T19:02:27.050Z,102001.13
2023-04-20T19:04:56.659Z,102001.22
2023-04-20T19:07:25.774Z,102004.13
2023-04-20T19:09:55.130Z,102006.50
2023-04-20T19:12:24.266Z,102006.97
2023-04-20T19:14:53.346Z,102008.13
2023-04-20T19:17:22.616Z,102011.94
2023-04-20T19:19:51.973Z,102004.66
2023-04-20T19:22:24.249Z,102001.13
2023-04-20T19:24:53.657Z,101992.16
2023-04-20T19:27:22.998Z,101987.56
2023-04-20T19:29:52.847Z,101975.06
2023-04-20T19:32:24.708Z,101968.50
2023-04-20T19:34:58.339Z,101981.78
2023-04-20T19:37:28.400Z,101968.91
2023-04-20T19:39:59.742Z,101966.97
2023-04-20T19:42:29.751Z,101956.22
2023-04-20T19:44:59.670Z,101969.41
2023-04-20T19:47:29.429Z,101970.13
2023-04-20T19:49:58.493Z,101957.88
2023-04-20T19:52:27.753Z,101953.03
2023-04-20T19:54:56.674Z,101947.00
2023-04-20T19:57:25.644Z,101941.91
2023-04-20T19:59:55.235Z,101942.38
2023-04-20T20:02:24.517Z,101939.50
2023-04-20T20:04:55.196Z,101945.38
2023-04-20T20:07:24.331Z,101946.03
2023-04-20T20:09:53.402Z,101946.47
2023-04-20T20:12:27.272Z,101939.78
2023-04-20T20:14:56.370Z,101936.34
2023-04-20T20:17:25.420Z,101935.75
2023-04-20T20:19:55.927Z,101931.31
2023-04-20T20:22:25.633Z,101937.00
2023-04-20T20:24:55.685Z,101940.25
2023-04-20T20:27:24.696Z,101924.25
2023-04-20T20:29:53.820Z,101927.00
2023-04-20T20:32:26.472Z,101921.31
2023-04-20T20:34:55.549Z,101925.25
2023-04-20T20:37:26.859Z,101918.19
2023-04-20T20:39:55.935Z,101918.75
2023-04-20T20:42:26.473Z,101913.38
2023-04-20T20:44:55.963Z,101914.09
2023-04-20T20:47:25.364Z,101907.75
2023-04-20T20:49:54.751Z,101892.13
2023-04-20T20:52:24.101Z,101895.88
2023-04-20T20:54:53.222Z,101898.19
2023-04-20T20:57:22.457Z,101907.19
2023-04-20T20:59:53.586Z,101890.81
2023-04-20T21:02:25.976Z,101895.59
2023-04-20T21:04:55.520Z,101883.53
2023-04-20T21:07:24.672Z,101877.72
2023-04-20T21:09:57.002Z,101878.50
2023-04-20T21:12:26.378Z,101874.50
2023-04-20T21:14:55.508Z,101870.47
2023-04-20T21:17:24.576Z,101862.53
2023-04-20T21:19:56.701Z,101861.19
2023-04-20T21:22:25.788Z,101856.81
2023-04-20T21:24:56.427Z,101859.59
2023-04-20T21:27:25.601Z,101871.56
2023-04-20T21:29:56.657Z,101863.97
2023-04-20T21:32:25.815Z,101847.84
2023-04-20T21:34:54.969Z,101841.06
2023-04-20T21:37:24.523Z,101851.31
2023-04-20T21:39:53.841Z,101851.88
2023-04-20T21:42:22.955Z,101854.31
2023-04-20T21:44:52.071Z,101836.09
2023-04-20T21:47:21.016Z,101845.47
2023-04-20T21:49:56.241Z,101838.34
2023-04-20T21:52:25.751Z,101835.91
2023-04-20T21:54:54.885Z,101837.38
2023-04-20T21:57:25.302Z,101823.94
2023-04-20T21:59:54.734Z,101819.56
2023-04-20T22:02:26.731Z,101811.13
2023-04-20T22:04:56.986Z,101809.50
2023-04-20T22:07:28.338Z,101816.41
2023-04-20T22:09:57.376Z,101819.09
2023-04-20T22:12:38.470Z,101797.16
2023-04-20T22:15:14.150Z,101795.59
2023-04-20T22:17:46.169Z,101784.75
2023-04-20T22:20:20.154Z,101776.19
2023-04-20T22:22:49.409Z,101770.38
2023-04-20T22:25:18.383Z,101762.31
2023-04-20T22:27:47.515Z,101759.09
2023-04-20T22:30:16.497Z,101744.75
2023-04-20T22:32:45.819Z,101742.50
2023-04-20T22:35:14.849Z,101742.47
2023-04-20T22:37:44.196Z,101739.44
2023-04-20T22:40:14.250Z,101727.03
2023-04-20T22:42:43.446Z,101715.38
2023-04-20T22:45:12.693Z,101714.00
2023-04-20T22:47:42.459Z,101702.81
2023-04-20T22:50:12.960Z,101696.75
2023-04-20T22:52:42.692Z,101685.34
2023-04-20T22:55:13.753Z,101683.22
2023-04-20T22:57:42.813Z,101678.97
2023-04-20T23:00:14.456Z,101677.44
2023-04-20T23:02:43.771Z,101674.75
2023-04-20T23:05:12.884Z,101677.06
2023-04-20T23:07:42.355Z,101660.19
2023-04-20T23:10:11.788Z,101660.94
2023-04-20T23:12:40.801Z,101655.22
2023-04-20T23:15:11.590Z,101652.81
2023-04-20T23:17:46.675Z,101651.28
2023-04-20T23:20:19.671Z,101651.66
2023-04-20T23:22:48.662Z,101637.91
2023-04-20T23:25:17.669Z,101641.84
2023-04-20T23:27:47.306Z,101650.38
2023-04-20T23:30:16.559Z,101645.75
2023-04-20T23:32:45.570Z,101639.00
2023-04-20T23:35:15.386Z,101639.59
2023-04-20T23:37:46.824Z,101626.06
2023-04-20T23:40:16.642Z,101626.69
2023-04-20T23:42:46.143Z,101619.13
2023-04-20T23:45:39.476Z,101621.88
2023-04-20T23:48:12.052Z,101616.81
2023-04-20T23:50:43.608Z,101602.22
2023-04-20T23:53:18.556Z,101603.06
2023-04-20T23:56:27.856Z,101587.41
2023-04-20T23:59:01.026Z,101586.28
